Time;durP1;ratioP1;P1;durP2;ratioP2;P2;SDS_P1;SDS_P2;PMS_P1;PMS_P2;Temp;Humidity;BMP_temperature;BMP_pressure;BME280_temperature;BME280_humidity;BME280_pressure;Samples;Min_cycle;Max_cycle;Signal;HPM_P1;HPM_P2
2023/06/16 00:01:05;;;;;;;;;15.25;15.25;;;;;23.23;39.29;100837.09;5076860;27;45401;-74
2023/06/16 00:03:34;;;;;;;;;15.50;15.50;;;;;23.19;39.18;100834.69;5077066;27;45419;-76
2023/06/16 00:06:12;;;;;;;;;18.00;18.00;;;;;23.17;39.58;100831.31;5076699;27;46086;-75
2023/06/16 00:08:51;;;;;;;;;14.50;14.50;;;;;23.14;39.56;100834.28;5092233;27;45680;-73
2023/06/16 00:11:17;;;;;;;;;15.75;15.75;;;;;23.10;39.91;100835.53;5092306;27;45530;-75
2023/06/16 00:13:45;;;;;;;;;14.00;14.00;;;;;23.10;39.55;100834.69;5077162;27;45426;-75
2023/06/16 00:16:10;;;;;;;;;15.75;15.75;;;;;23.04;39.72;100841.44;5076604;27;46283;-74
2023/06/16 00:18:36;;;;;;;;;16.75;16.75;;;;;23.04;39.72;100830.72;5076553;27;45382;-75
2023/06/16 00:21:02;;;;;;;;;13.25;13.25;;;;;23.02;39.62;100832.69;5076779;27;45255;-74
2023/06/16 00:23:29;;;;;;;;;12.50;12.50;;;;;22.94;40.24;100830.72;5076683;27;45261;-73
2023/06/16 00:25:55;;;;;;;;;13.75;13.75;;;;;23.01;39.97;100844.41;5076601;27;46201;-75
2023/06/16 00:28:20;;;;;;;;;14.00;14.00;;;;;22.97;40.06;100846.53;5076366;27;45395;-74
2023/06/16 00:30:46;;;;;;;;;15.00;15.00;;;;;22.90;40.32;100840.00;5076855;27;45240;-71
2023/06/16 00:33:15;;;;;;;;;15.50;15.50;;;;;22.91;40.30;100837.19;5092838;27;45362;-78
2023/06/16 00:35:40;;;;;;;;;13.00;13.00;;;;;22.89;40.59;100841.00;5076425;27;45387;-76
2023/06/16 00:38:05;;;;;;;;;12.25;12.25;;;;;22.84;40.53;100840.56;5075193;27;45759;-74
2023/06/16 00:40:31;;;;;;;;;17.00;17.00;;;;;22.78;40.10;100833.88;5076873;27;45622;-76
2023/06/16 00:42:58;;;;;;;;;17.50;17.50;;;;;22.80;40.39;100842.66;5076555;27;45282;-71
2023/06/16 00:45:24;;;;;;;;;12.00;12.00;;;;;22.74;40.66;100837.81;5076456;27;46396;-72
2023/06/16 00:47:51;;;;;;;;;15.25;15.25;;;;;22.72;40.43;100845.16;5076399;27;45426;-77
2023/06/16 00:50:18;;;;;;;;;14.50;14.50;;;;;22.63;40.71;100836.06;5076642;27;45308;-76
2023/06/16 00:52:44;;;;;;;;;15.00;15.00;;;;;22.58;40.64;100830.25;5076947;27;45364;-76
2023/06/16 00:55:11;;;;;;;;;14.00;14.00;;;;;22.56;40.91;100843.81;5076067;28;45387;-76
2023/06/16 00:57:38;;;;;;;;;14.50;14.50;;;;;22.53;41.05;100837.88;5075922;27;45339;-75
2023/06/16 01:00:06;;;;;;;;;14.50;14.50;;;;;22.51;41.17;100846.06;5076328;27;45481;-75
2023/06/16 01:02:32;;;;;;;;;12.50;11.50;;;;;22.46;41.40;100845.59;5076341;27;45334;-73
2023/06/16 01:04:58;;;;;;;;;13.00;13.00;;;;;22.39;41.60;100842.56;5076094;27;46095;-75
2023/06/16 01:07:33;;;;;;;;;12.00;12.00;;;;;22.37;41.63;100841.00;5091741;27;45526;-73
2023/06/16 01:10:20;;;;;;;;;12.25;12.25;;;;;22.31;41.73;100840.56;5075924;27;45398;-75
2023/06/16 01:13:00;;;;;;;;;13.25;13.25;;;;;22.28;41.73;100848.88;5092465;27;45333;-74
2023/06/16 01:15:30;;;;;;;;;15.50;15.50;;;;;22.19;42.41;100836.22;5076128;27;47202;-75
2023/06/16 01:17:59;;;;;;;;;14.25;14.25;;;;;22.21;42.62;100844.97;5077131;27;45306;-76
2023/06/16 01:20:39;;;;;;;;;16.75;16.00;;;;;22.17;42.56;100839.06;5076931;27;45504;-73
2023/06/16 01:23:40;;;;;;;;;14.50;14.50;;;;;22.10;42.60;100832.53;5076086;27;45414;-75
2023/06/16 01:26:09;;;;;;;;;13.50;13.50;;;;;22.10;42.73;100842.38;5075730;28;46132;-72
2023/06/16 01:28:39;;;;;;;;;12.00;12.00;;;;;22.06;42.73;100840.94;5075482;27;45252;-70
2023/06/16 01:31:08;;;;;;;;;13.50;13.50;;;;;22.01;43.01;100828.78;5075860;27;45419;-71
2023/06/16 01:33:37;;;;;;;;;14.00;13.00;;;;;21.96;43.17;100833.69;5091153;27;45516;-72
2023/06/16 01:36:03;;;;;;;;;14.00;14.00;;;;;21.93;43.50;100833.94;5075052;27;45165;-70
2023/06/16 01:38:30;;;;;;;;;15.25;15.25;;;;;21.91;43.23;100825.19;5075474;28;45499;-74
2023/06/16 01:40:56;;;;;;;;;11.75;11.75;;;;;21.85;43.40;100828.38;5075557;27;45348;-74
2023/06/16 01:43:22;;;;;;;;;14.25;14.25;;;;;21.81;43.61;100832.31;5075414;27;45533;-74
2023/06/16 01:45:50;;;;;;;;;12.50;12.50;;;;;21.78;43.63;100821.84;5075342;27;46470;-75
2023/06/16 01:48:15;;;;;;;;;14.75;14.75;;;;;21.73;44.13;100820.41;5075585;27;45331;-76
2023/06/16 01:50:41;;;;;;;;;14.25;14.25;;;;;21.69;44.02;100812.75;5074000;27;45259;-75
2023/06/16 01:53:06;;;;;;;;;14.00;14.00;;;;;21.66;44.16;100827.25;5075780;27;45464;-73
2023/06/16 01:55:32;;;;;;;;;15.25;15.25;;;;;21.63;44.30;100826.63;5075196;27;45262;-74
2023/06/16 01:57:57;;;;;;;;;14.00;14.00;;;;;21.64;44.73;100834.56;5074927;27;45310;-73
2023/06/16 02:00:29;;;;;;;;;15.50;15.50;;;;;21.61;44.39;100824.09;5075487;27;45286;-74
2023/06/16 02:03:05;;;;;;;;;15.00;15.00;;;;;21.58;44.50;100827.03;5074024;28;45569;-71
2023/06/16 02:05:34;;;;;;;;;15.00;15.00;;;;;21.57;44.59;100833.34;5075151;27;46389;-74
2023/06/16 02:08:02;;;;;;;;;12.75;12.75;;;;;21.52;44.93;100830.22;5075501;28;45331;-71
2023/06/16 02:10:29;;;;;;;;;12.00;12.00;;;;;21.50;45.26;100827.66;5073431;27;45409;-73
2023/06/16 02:12:55;;;;;;;;;14.00;14.00;;;;;21.42;45.33;100820.28;5075176;27;45322;-75
2023/06/16 02:15:21;;;;;;;;;16.25;16.25;;;;;21.37;45.06;100824.28;5075322;27;45350;-75
2023/06/16 02:17:47;;;;;;;;;18.50;17.75;;;;;21.33;45.46;100822.84;5075439;27;45599;-76
2023/06/16 02:20:13;;;;;;;;;14.75;14.75;;;;;21.29;45.34;100832.97;5091072;27;45350;-75
2023/06/16 02:22:39;;;;;;;;;14.25;14.25;;;;;21.22;45.99;100823.72;5075364;27;45495;-76
2023/06/16 02:25:05;;;;;;;;;14.50;14.50;;;;;21.17;45.57;100818.75;5075009;27;45364;-75
2023/06/16 02:27:30;;;;;;;;;13.75;13.75;;;;;21.15;46.05;100824.22;5074819;27;45305;-73
2023/06/16 02:29:56;;;;;;;;;14.25;14.25;;;;;21.13;45.78;100828.84;5075039;27;45311;-73
2023/06/16 02:32:21;;;;;;;;;13.25;13.25;;;;;21.12;45.95;100835.16;5091128;27;45689;-75
2023/06/16 02:34:46;;;;;;;;;14.00;14.00;;;;;21.09;45.94;100835.41;5074737;27;45310;-73
2023/06/16 02:37:13;;;;;;;;;14.75;14.75;;;;;21.07;46.22;100826.66;5075031;27;45349;-76
2023/06/16 02:39:39;;;;;;;;;14.00;14.00;;;;;21.04;45.97;100829.56;5074775;27;45376;-75
2023/06/16 02:42:05;;;;;;;;;17.00;17.00;;;;;21.04;46.45;100828.75;5074971;28;45487;-75
2023/06/16 02:44:30;;;;;;;;;14.00;14.00;;;;;21.02;46.38;100826.19;5074709;27;47176;-74
2023/06/16 02:46:56;;;;;;;;;14.75;14.75;;;;;20.95;46.31;100817.81;5076538;27;45275;-74
2023/06/16 02:49:22;;;;;;;;;14.00;14.00;;;;;20.98;46.36;100832.75;5094112;27;45401;-74
2023/06/16 02:51:49;;;;;;;;;15.25;15.25;;;;;20.95;46.56;100825.84;5078395;27;45606;-75
2023/06/16 02:54:14;;;;;;;;;16.50;16.50;;;;;20.93;46.30;100827.78;5077703;27;45846;-74
2023/06/16 02:56:39;;;;;;;;;15.25;15.25;;;;;20.92;46.42;100820.75;5078271;27;45380;-74
2023/06/16 02:59:05;;;;;;;;;12.75;12.75;;;;;20.91;46.23;100829.72;5078111;27;45401;-72
2023/06/16 03:01:30;;;;;;;;;14.25;14.25;;;;;20.89;46.72;100823.66;5078071;27;45648;-72
2023/06/16 03:03:58;;;;;;;;;18.75;18.00;;;;;20.85;46.68;100827.56;5076280;28;47516;-74
2023/06/16 03:06:23;;;;;;;;;15.50;15.50;;;;;20.85;46.44;100824.88;5078001;27;45204;-73
2023/06/16 03:08:49;;;;;;;;;13.50;13.50;;;;;20.84;46.60;100818.66;5076638;27;45410;-73
2023/06/16 03:11:15;;;;;;;;;15.75;15.75;;;;;20.82;46.58;100822.44;5076645;28;45267;-75
2023/06/16 03:13:41;;;;;;;;;17.00;17.00;;;;;20.80;46.75;100827.91;5077539;27;45316;-73
2023/06/16 03:16:07;;;;;;;;;16.50;16.50;;;;;20.76;47.07;100821.06;5076254;28;45253;-74
2023/06/16 03:18:33;;;;;;;;;16.00;16.00;;;;;20.70;47.46;100816.22;5093385;27;45337;-69
2023/06/16 03:20:58;;;;;;;;;16.50;15.50;;;;;20.69;47.59;100828.75;5059453;28;45621;-69
2023/06/16 03:23:24;;;;;;;;;17.00;17.00;;;;;20.65;47.68;100823.75;5077659;27;45614;-71
2023/06/16 03:25:49;;;;;;;;;16.50;16.50;;;;;20.43;47.46;100796.06;5077605;27;45292;-73
2023/06/16 03:28:14;;;;;;;;;17.00;17.00;;;;;20.56;47.95;100828.84;5077434;27;45400;-73
2023/06/16 03:30:40;;;;;;;;;18.25;18.25;;;;;20.53;48.01;100828.22;5078029;28;45305;-77
2023/06/16 03:33:06;;;;;;;;;15.75;15.50;;;;;20.50;48.19;100832.00;5077478;27;45968;-68
2023/06/16 03:35:32;;;;;;;;;20.75;20.75;;;;;20.38;48.51;100832.97;5077193;27;45425;-69
2023/06/16 03:37:57;;;;;;;;;17.75;17.75;;;;;20.26;49.04;100824.94;5077285;27;45357;-68
2023/06/16 03:40:22;;;;;;;;;17.50;17.50;;;;;20.23;48.89;100840.34;5077988;27;45342;-68
2023/06/16 03:42:48;;;;;;;;;17.00;17.00;;;;;20.21;49.08;100839.59;5077095;27;45576;-69
2023/06/16 03:45:13;;;;;;;;;15.50;15.50;;;;;20.17;49.35;100839.00;5076960;27;45394;-70
2023/06/16 03:47:38;;;;;;;;;17.00;17.00;;;;;20.21;49.17;100840.47;5092748;27;45530;-71
2023/06/16 03:50:04;;;;;;;;;16.75;16.75;;;;;20.21;49.61;100835.13;5077625;27;45557;-67
2023/06/16 03:52:29;;;;;;;;;15.00;15.00;;;;;20.16;49.37;100831.09;5075206;27;46244;-69
2023/06/16 03:54:56;;;;;;;;;20.50;20.50;;;;;20.16;49.28;100834.63;5077049;27;45319;-68
2023/06/16 03:57:21;;;;;;;;;18.00;18.00;;;;;20.18;49.97;100840.72;5076326;27;45250;-69
2023/06/16 03:59:47;;;;;;;;;15.75;15.75;;;;;20.17;49.36;100836.34;5076591;27;45163;-66
2023/06/16 04:02:12;;;;;;;;;15.50;15.50;;;;;20.16;49.96;100833.78;5074974;27;47539;-69
2023/06/16 04:04:37;;;;;;;;;12.00;12.00;;;;;20.10;49.92;100833.28;5076576;27;45250;-69
2023/06/16 04:07:04;;;;;;;;;15.75;15.75;;;;;20.12;49.75;100830.47;5076793;27;45240;-68
2023/06/16 04:09:30;;;;;;;;;15.00;15.00;;;;;20.12;50.00;100838.47;5077076;27;45454;-70
2023/06/16 04:11:56;;;;;;;;;16.25;16.25;;;;;20.06;50.69;100834.47;5076478;27;46311;-71
2023/06/16 04:14:21;;;;;;;;;20.25;18.50;;;;;20.00;51.16;100833.13;5076262;27;45524;-67
2023/06/16 04:16:46;;;;;;;;;19.50;19.25;;;;;19.98;50.78;100840.41;5076130;27;52559;-69
2023/06/16 04:19:12;;;;;;;;;23.25;21.75;;;;;19.96;50.93;100847.66;5076785;27;45378;-70
2023/06/16 04:21:37;;;;;;;;;18.25;18.25;;;;;19.94;51.35;100838.91;5076291;27;46244;-69
2023/06/16 04:24:04;;;;;;;;;15.75;15.75;;;;;19.94;51.35;100844.25;5076365;27;45310;-68
2023/06/16 04:26:30;;;;;;;;;20.00;20.00;;;;;19.93;51.36;100850.56;5076447;27;45185;-70
2023/06/16 04:28:55;;;;;;;;;23.00;21.75;;;;;19.90;51.05;100844.63;5076862;27;45207;-68
2023/06/16 04:31:28;;;;;;;;;16.00;16.00;;;;;19.94;51.37;100854.94;5076313;27;47366;-68
2023/06/16 04:33:56;;;;;;;;;19.50;19.50;;;;;19.98;51.08;100848.41;5076501;27;45408;-67
2023/06/16 04:36:21;;;;;;;;;18.50;17.00;;;;;20.00;50.91;100854.47;5076315;27;45207;-67
2023/06/16 04:38:47;;;;;;;;;16.75;16.75;;;;;20.02;51.19;100853.50;5074816;28;45601;-69
2023/06/16 04:41:12;;;;;;;;;19.50;19.50;;;;;20.10;51.21;100856.44;5075896;27;45986;-68
2023/06/16 04:43:37;;;;;;;;;18.50;18.50;;;;;20.10;51.27;100859.13;5075778;27;52066;-71
2023/06/16 04:46:03;;;;;;;;;18.00;18.00;;;;;20.08;51.31;100850.38;5076298;27;45318;-67
2023/06/16 04:48:28;;;;;;;;;17.50;17.50;;;;;20.11;51.43;100856.34;5076522;27;45624;-68
2023/06/16 04:50:53;;;;;;;;;17.75;17.75;;;;;20.12;51.10;100857.19;5075740;27;45526;-68
2023/06/16 04:53:20;;;;;;;;;19.00;19.00;;;;;20.11;50.87;100851.00;5075705;27;45357;-68
2023/06/16 04:55:45;;;;;;;;;15.75;15.75;;;;;20.05;51.25;100840.78;5075765;27;45846;-70
2023/06/16 04:58:11;;;;;;;;;17.25;17.25;;;;;20.12;51.04;100849.16;5075028;27;45969;-71
2023/06/16 05:00:36;;;;;;;;;20.00;20.00;;;;;20.16;51.32;100848.00;5076030;27;46688;-70
2023/06/16 05:03:02;;;;;;;;;18.50;18.50;;;;;20.26;51.18;100848.97;5091733;27;45385;-68
2023/06/16 05:05:27;;;;;;;;;18.75;18.50;;;;;20.33;50.93;100846.66;5076296;27;45334;-69
2023/06/16 05:07:52;;;;;;;;;18.75;18.75;;;;;20.55;50.76;100845.00;5076292;27;45478;-69
2023/06/16 05:10:18;;;;;;;;;16.50;16.50;;;;;20.62;50.05;100832.84;5075091;27;45379;-70
2023/06/16 05:12:43;;;;;;;;;21.00;21.00;;;;;20.95;49.94;100854.38;5075993;27;45440;-70
2023/06/16 05:15:09;;;;;;;;;18.75;18.75;;;;;21.08;49.36;100847.06;5076489;27;45492;-70
2023/06/16 05:17:36;;;;;;;;;20.50;20.50;;;;;21.20;48.88;100853.28;5091586;27;45317;-67
2023/06/16 05:20:02;;;;;;;;;23.00;23.00;;;;;21.24;48.93;100845.84;5075527;27;45453;-65
2023/06/16 05:22:27;;;;;;;;;23.75;23.50;;;;;21.36;48.64;100855.56;5074524;28;45398;-68
2023/06/16 05:24:57;;;;;;;;;19.00;19.00;;;;;21.42;48.52;100838.13;5075780;27;45239;-69
2023/06/16 05:27:25;;;;;;;;;17.25;16.00;;;;;21.56;48.42;100845.88;5075872;27;45917;-69
2023/06/16 05:29:52;;;;;;;;;21.00;21.00;;;;;21.70;48.17;100850.13;5075261;27;46080;-69
2023/06/16 05:32:19;;;;;;;;;20.00;20.00;;;;;21.86;48.03;100852.38;5090675;27;45409;-70
2023/06/16 05:34:49;;;;;;;;;20.00;20.00;;;;;22.00;47.96;100847.69;5075228;27;45368;-67
2023/06/16 05:37:15;;;;;;;;;25.75;25.75;;;;;22.11;47.37;100844.06;5075483;27;45712;-69
2023/06/16 05:39:43;;;;;;;;;19.00;19.00;;;;;22.21;47.16;100844.97;5075024;27;45353;-69
2023/06/16 05:42:10;;;;;;;;;17.75;17.75;;;;;22.31;46.88;100851.28;5075057;28;45439;-69
2023/06/16 05:44:35;;;;;;;;;17.75;17.75;;;;;22.38;46.97;100850.75;5073748;28;45365;-71
2023/06/16 05:47:01;;;;;;;;;20.25;20.25;;;;;22.49;46.73;100853.38;5074938;27;49181;-69
2023/06/16 05:49:26;;;;;;;;;18.75;18.75;;;;;22.52;46.27;100846.88;5072793;27;54724;-69
2023/06/16 05:51:52;;;;;;;;;17.75;17.75;;;;;22.53;46.34;100843.22;5090655;27;45918;-69
2023/06/16 05:54:17;;;;;;;;;18.25;18.25;;;;;22.57;45.92;100852.69;5075172;27;45310;-70
2023/06/16 05:56:42;;;;;;;;;20.00;20.00;;;;;22.56;45.84;100851.00;5090837;27;45509;-69
2023/06/16 05:59:08;;;;;;;;;20.75;20.75;;;;;22.46;45.99;100843.75;5074758;27;52855;-69
2023/06/16 06:01:34;;;;;;;;;23.75;22.50;;;;;22.37;45.71;100849.06;5075802;27;45296;-70
2023/06/16 06:03:59;;;;;;;;;19.50;19.50;;;;;22.28;46.06;100846.19;5075672;28;45302;-69
2023/06/16 06:06:25;;;;;;;;;22.25;21.75;;;;;22.27;46.72;100843.63;5073751;28;45380;-70
2023/06/16 06:08:50;;;;;;;;;26.00;26.00;;;;;22.29;46.08;100855.06;5074375;27;45426;-68
2023/06/16 06:11:16;;;;;;;;;21.75;21.75;;;;;22.27;46.14;100849.84;5074519;27;45514;-67
2023/06/16 06:13:41;;;;;;;;;23.00;23.00;;;;;22.28;46.13;100856.91;5074481;28;52752;-67
2023/06/16 06:16:06;;;;;;;;;20.75;20.75;;;;;22.23;46.20;100847.53;5073308;28;45392;-68
2023/06/16 06:18:32;;;;;;;;;25.00;25.00;;;;;22.21;46.33;100858.38;5090393;27;48205;-66
2023/06/16 06:20:57;;;;;;;;;23.50;23.50;;;;;22.18;46.43;100850.59;5076191;27;45384;-69
2023/06/16 06:23:23;;;;;;;;;20.00;20.00;;;;;22.18;46.15;100855.97;5078391;27;45271;-72
2023/06/16 06:25:48;;;;;;;;;22.00;22.00;;;;;22.11;45.99;100852.09;5077265;28;45212;-68
2023/06/16 06:28:13;;;;;;;;;23.50;23.50;;;;;22.14;46.21;100862.56;5078177;27;45912;-68
2023/06/16 06:30:39;;;;;;;;;20.50;20.50;;;;;22.17;46.40;100870.34;5078119;27;45353;-69
2023/06/16 06:33:04;;;;;;;;;23.75;23.75;;;;;22.17;46.27;100867.66;5078314;27;45399;-66
2023/06/16 06:35:30;;;;;;;;;22.00;22.00;;;;;22.22;46.24;100860.06;5078211;27;45334;-72
2023/06/16 06:37:55;;;;;;;;;23.50;23.50;;;;;22.24;46.42;100876.88;5080565;27;45498;-79
2023/06/16 06:40:22;;;;;;;;;24.25;24.25;;;;;22.28;46.31;100872.97;5085938;27;45431;-73
2023/06/16 06:42:47;;;;;;;;;19.50;19.50;;;;;22.33;46.14;100878.78;5079738;27;45440;-76
2023/06/16 06:45:13;;;;;;;;;21.75;21.75;;;;;22.40;45.81;100883.63;5079240;27;45280;-72
2023/06/16 06:47:39;;;;;;;;;22.25;22.25;;;;;22.45;45.17;100884.13;5078139;27;46460;-71
2023/06/16 06:50:05;;;;;;;;;32.50;31.25;;;;;22.51;45.23;100883.56;5080635;27;45213;-79
2023/06/16 06:52:31;;;;;;;;;24.50;24.25;;;;;22.57;44.91;100885.72;5080293;28;45250;-70
2023/06/16 06:54:56;;;;;;;;;20.50;20.50;;;;;22.60;45.12;100888.16;5078169;27;45505;-70
2023/06/16 06:57:24;;;;;;;;;25.00;25.00;;;;;22.66;44.32;100894.78;5075999;28;46998;-72
2023/06/16 06:59:50;;;;;;;;;21.50;21.50;;;;;22.72;44.47;100901.47;5057941;27;46127;-69
2023/06/16 07:02:16;;;;;;;;;25.50;25.50;;;;;22.76;44.34;100909.09;5036780;28;45502;-68
2023/06/16 07:04:42;;;;;;;;;19.50;19.50;;;;;22.80;44.36;100904.31;5053360;28;45381;-67
2023/06/16 07:07:08;;;;;;;;;26.00;26.00;;;;;22.86;43.75;100913.69;5056497;28;45395;-67
2023/06/16 07:09:34;;;;;;;;;20.00;20.00;;;;;22.90;43.98;100915.09;5065023;28;45243;-67
2023/06/16 07:11:59;;;;;;;;;22.75;22.75;;;;;22.78;43.85;100887.53;5061725;27;45372;-70
2023/06/16 07:14:26;;;;;;;;;20.50;20.50;;;;;23.01;43.84;100916.84;5057423;28;45382;-67
2023/06/16 07:16:52;;;;;;;;;23.50;22.75;;;;;23.00;43.43;100916.00;5057030;28;45681;-72
2023/06/16 07:19:17;;;;;;;;;22.00;22.00;;;;;23.07;43.66;100923.50;5057445;28;45348;-75
2023/06/16 07:21:42;;;;;;;;;23.75;23.75;;;;;23.12;43.24;100914.06;5057735;28;45177;-74
2023/06/16 07:24:08;;;;;;;;;21.75;21.75;;;;;23.17;43.05;100919.84;5057897;28;45474;-79
2023/06/16 07:26:33;;;;;;;;;26.25;26.25;;;;;23.23;43.68;100922.97;5056234;28;45729;-78
2023/06/16 07:29:02;;;;;;;;;20.50;20.50;;;;;23.31;42.72;100917.81;5058514;28;45323;-71
2023/06/16 07:31:27;;;;;;;;;20.25;20.25;;;;;23.39;42.80;100914.44;5057108;28;45347;-83
2023/06/16 07:33:52;;;;;;;;;22.50;22.25;;;;;23.47;43.02;100920.84;5055781;28;45287;-82
2023/06/16 07:36:18;;;;;;;;;23.25;23.25;;;;;23.53;42.83;100923.97;5057298;28;46327;-81
2023/06/16 07:38:43;;;;;;;;;22.50;21.50;;;;;23.55;43.30;100917.44;5057711;28;45348;-83
2023/06/16 07:41:08;;;;;;;;;23.00;23.00;;;;;23.63;42.53;100922.13;5062041;28;45297;-81
2023/06/16 07:43:35;;;;;;;;;20.50;20.50;;;;;23.64;41.97;100915.78;5058087;28;45347;-82
2023/06/16 07:46:00;;;;;;;;;21.25;21.25;;;;;23.68;42.33;100919.88;5056897;28;45433;-82
2023/06/16 07:48:26;;;;;;;;;22.75;22.00;;;;;23.75;41.33;100914.78;5057474;28;45346;-78
2023/06/16 07:50:53;;;;;;;;;21.00;21.00;;;;;23.81;41.48;100908.84;5057413;28;45436;-83
2023/06/16 07:53:18;;;;;;;;;20.00;20.00;;;;;23.94;40.80;100927.38;5058136;28;45597;-78
2023/06/16 07:55:44;;;;;;;;;22.50;22.50;;;;;23.97;40.72;100916.34;5057532;28;46648;-82
2023/06/16 07:58:09;;;;;;;;;20.50;20.50;;;;;24.01;40.57;100923.19;5057710;28;45318;-83
2023/06/16 08:00:35;;;;;;;;;25.25;25.25;;;;;24.07;40.78;100925.28;5058172;28;45344;-80
2023/06/16 08:03:00;;;;;;;;;26.00;25.25;;;;;24.10;40.39;100928.69;5059338;28;45425;-78
2023/06/16 08:05:25;;;;;;;;;19.75;19.75;;;;;24.14;40.23;100924.72;5059085;28;46410;-84
2023/06/16 08:07:51;;;;;;;;;22.50;22.50;;;;;24.25;40.32;100924.56;5060272;28;50499;-80
2023/06/16 08:10:19;;;;;;;;;21.75;21.75;;;;;24.28;39.96;100926.16;5060859;28;45373;-79
2023/06/16 08:12:51;;;;;;;;;19.00;19.00;;;;;24.35;40.08;100916.50;5071409;28;45299;-71
2023/06/16 08:15:17;;;;;;;;;31.50;29.75;;;;;24.46;40.40;100918.22;5061528;28;46967;-80
2023/06/16 08:17:43;;;;;;;;;22.75;22.75;;;;;24.56;40.04;100915.47;5058057;28;45433;-75
2023/06/16 08:20:10;;;;;;;;;22.50;22.50;;;;;24.64;40.39;100911.06;5057948;28;45268;-79
2023/06/16 08:22:35;;;;;;;;;21.50;21.50;;;;;24.69;40.01;100907.09;5057527;28;45599;-77
2023/06/16 08:25:02;;;;;;;;;20.00;20.00;;;;;24.82;40.10;100915.72;5057364;28;45682;-82
2023/06/16 08:27:27;;;;;;;;;23.00;23.00;;;;;24.89;40.04;100915.97;5057002;28;45300;-78
2023/06/16 08:29:53;;;;;;;;;23.50;23.50;;;;;24.90;39.38;100906.91;5056980;28;45246;-80
2023/06/16 08:32:19;;;;;;;;;18.50;18.50;;;;;25.00;38.85;100905.03;5056699;28;45557;-78
2023/06/16 08:34:44;;;;;;;;;20.25;20.25;;;;;25.08;39.05;100906.97;5056662;28;45486;-74
2023/06/16 08:37:10;;;;;;;;;22.75;22.75;;;;;25.14;38.79;100911.75;5057126;28;45420;-82
2023/06/16 08:39:35;;;;;;;;;22.50;22.50;;;;;25.21;38.68;100906.63;5056784;28;45323;-81
2023/06/16 08:42:02;;;;;;;;;23.75;23.75;;;;;25.26;38.13;100898.94;5057174;28;45495;-81
2023/06/16 08:44:30;;;;;;;;;17.75;17.75;;;;;25.33;37.31;100896.50;5059149;28;45336;-73
2023/06/16 08:46:57;;;;;;;;;17.75;17.75;;;;;25.42;37.01;100903.66;5060773;28;45256;-77
2023/06/16 08:49:23;;;;;;;;;29.75;29.00;;;;;25.50;36.92;100900.25;5062671;28;45347;-76
2023/06/16 08:51:50;;;;;;;;;17.50;17.50;;;;;25.61;36.19;100897.34;5058463;28;45311;-76
2023/06/16 08:54:18;;;;;;;;;18.25;18.25;;;;;25.67;35.57;100891.34;5055111;28;47648;-76
2023/06/16 08:56:44;;;;;;;;;16.50;16.50;;;;;25.81;35.78;100902.56;5056496;28;45260;-79
2023/06/16 08:59:11;;;;;;;;;17.75;17.75;;;;;25.86;34.58;100897.56;5056634;28;45443;-77
2023/06/16 09:01:39;;;;;;;;;19.50;19.50;;;;;25.93;34.82;100895.09;5056505;28;45572;-79
2023/06/16 09:04:13;;;;;;;;;19.00;19.00;;;;;26.03;34.46;100897.72;5056144;28;45474;-69
2023/06/16 09:06:48;;;;;;;;;23.25;23.25;;;;;26.11;34.26;100897.78;5054410;28;45373;-76
2023/06/16 09:09:14;;;;;;;;;17.50;17.50;;;;;26.14;33.35;100889.41;5055191;28;45446;-79
2023/06/16 09:11:41;;;;;;;;;14.00;14.00;;;;;26.21;33.21;100889.63;5054746;28;45449;-79
2023/06/16 09:14:11;;;;;;;;;12.00;12.00;;;;;26.28;31.50;100901.47;5056430;28;45934;-79
2023/06/16 09:16:39;;;;;;;;;13.75;13.75;;;;;26.24;32.36;100892.00;5054568;28;45440;-77
2023/06/16 09:19:09;;;;;;;;;13.75;13.75;;;;;26.32;32.55;100899.31;5055500;28;45354;-71
2023/06/16 09:21:35;;;;;;;;;16.00;16.00;;;;;26.35;33.24;100891.75;5056796;28;45492;-78
2023/06/16 09:24:01;;;;;;;;;18.25;18.25;;;;;26.44;33.06;100897.19;5058505;28;45473;-78
2023/06/16 09:26:35;;;;;;;;;13.75;13.75;;;;;26.51;31.45;100888.31;5063692;28;45274;-75
2023/06/16 09:29:19;;;;;;;;;12.50;12.50;;;;;26.55;31.49;100880.78;5060891;28;45244;-78
2023/06/16 09:31:45;;;;;;;;;12.00;12.00;;;;;26.58;31.29;100882.28;5057877;28;45307;-78
2023/06/16 09:34:11;;;;;;;;;14.25;14.25;;;;;26.62;30.97;100878.28;5056595;28;45473;-73
2023/06/16 09:36:37;;;;;;;;;26.25;25.75;;;;;26.65;30.86;100880.66;5055743;28;45225;-76
2023/06/16 09:39:05;;;;;;;;;19.00;19.00;;;;;26.76;30.33;100890.31;5054064;28;45278;-73
2023/06/16 09:41:33;;;;;;;;;16.00;16.00;;;;;26.83;31.29;100880.59;5053883;28;45333;-77
2023/06/16 09:43:59;;;;;;;;;15.00;15.00;;;;;26.92;31.34;100887.72;5053896;28;48157;-80
2023/06/16 09:46:25;;;;;;;;;16.25;16.25;;;;;26.95;30.74;100879.31;5055898;28;45310;-79
2023/06/16 09:48:51;;;;;;;;;17.75;17.75;;;;;27.00;30.75;100872.56;5054668;28;45398;-77
2023/06/16 09:51:17;;;;;;;;;17.00;17.00;;;;;27.11;30.31;100886.63;5054940;28;45542;-77
2023/06/16 09:53:46;;;;;;;;;18.00;16.25;;;;;27.14;30.06;100881.91;5054789;28;46254;-77
2023/06/16 09:56:16;;;;;;;;;15.75;15.75;;;;;27.15;30.23;100876.34;5054655;28;45349;-80
2023/06/16 09:58:43;;;;;;;;;15.25;15.25;;;;;27.22;30.42;100877.38;5053664;28;45327;-79
2023/06/16 10:01:10;;;;;;;;;19.00;19.00;;;;;27.31;30.30;100877.41;5055550;28;45642;-72
2023/06/16 10:03:39;;;;;;;;;16.25;16.25;;;;;27.41;29.90;100888.91;5055209;28;45654;-78
2023/06/16 10:06:30;;;;;;;;;15.75;15.75;;;;;27.48;29.69;100889.94;5054874;28;45410;-76
2023/06/16 10:08:56;;;;;;;;;15.75;15.75;;;;;27.45;29.75;100882.16;5055122;28;45381;-78
2023/06/16 10:11:23;;;;;;;;;15.25;15.25;;;;;27.55;29.49;100890.97;5055583;28;45335;-78
2023/06/16 10:13:54;;;;;;;;;14.75;14.75;;;;;27.54;29.54;100883.06;5056142;28;46117;-77
2023/06/16 10:16:23;;;;;;;;;13.25;13.25;;;;;27.52;28.98;100876.97;5054576;28;45422;-79
2023/06/16 10:18:49;;;;;;;;;17.50;16.50;;;;;27.52;28.67;100867.00;5055034;28;45427;-77
2023/06/16 10:21:15;;;;;;;;;12.50;12.50;;;;;27.60;29.55;100873.47;5053745;28;45518;-72
2023/06/16 10:23:40;;;;;;;;;12.75;12.75;;;;;27.59;28.79;100875.28;5054819;28;45576;-79
2023/06/16 10:26:07;;;;;;;;;20.75;20.75;;;;;27.59;29.08;100864.50;5055611;28;45789;-73
2023/06/16 10:28:37;;;;;;;;;46.25;39.50;;;;;27.68;28.69;100873.47;5054774;28;45226;-76
2023/06/16 10:31:04;;;;;;;;;14.50;14.50;;;;;27.78;27.87;100875.97;5055529;28;45451;-80
2023/06/16 10:33:53;;;;;;;;;17.00;17.00;;;;;27.87;28.68;100876.84;5055174;28;46132;-76
2023/06/16 10:36:38;;;;;;;;;13.50;13.50;;;;;27.97;28.53;100867.53;5055747;28;45402;-80
2023/06/16 10:39:08;;;;;;;;;16.25;16.25;;;;;28.01;28.11;100859.94;5056332;28;45417;-78
2023/06/16 10:41:47;;;;;;;;;15.50;15.50;;;;;28.13;28.54;100866.72;5059612;28;45441;-77
2023/06/16 10:44:25;;;;;;;;;17.00;17.00;;;;;28.17;28.22;100867.25;5061200;28;45169;-78
2023/06/16 10:47:08;;;;;;;;;18.25;18.25;;;;;28.20;27.57;100868.75;5060161;28;45249;-78
2023/06/16 10:49:55;;;;;;;;;13.00;13.00;;;;;28.25;27.49;100872.63;5056262;28;45292;-78
2023/06/16 10:52:29;;;;;;;;;17.00;17.00;;;;;28.31;27.79;100873.78;5055176;28;45465;-76
2023/06/16 10:54:56;;;;;;;;;14.75;14.75;;;;;28.38;26.76;100873.97;5054051;28;46174;-78
2023/06/16 10:57:25;;;;;;;;;15.25;15.25;;;;;28.39;26.51;100864.84;5054337;28;45447;-77
2023/06/16 10:59:53;;;;;;;;;15.50;15.50;;;;;28.38;26.51;100863.97;5054749;28;45360;-77
2023/06/16 11:02:23;;;;;;;;;16.25;16.25;;;;;28.38;26.24;100863.16;5054488;28;45574;-78
2023/06/16 11:05:07;;;;;;;;;14.00;14.00;;;;;28.42;26.45;100857.19;5054122;28;45684;-76
2023/06/16 11:07:53;;;;;;;;;20.75;20.75;;;;;28.47;26.25;100863.94;5057016;28;45438;-75
2023/06/16 11:10:21;;;;;;;;;12.00;12.00;;;;;28.46;26.65;100848.72;5058550;28;45389;-77